Time;durP1;ratioP1;P1;durP2;ratioP2;P2;SDS_P1;SDS_P2;PMS_P1;PMS_P2;Temp;Humidity;BMP_temperature;BMP_pressure;BME280_temperature;BME280_humidity;BME280_pressure;Samples;Min_cycle;Max_cycle;Signal;HPM_P1;HPM_P2
2022/09/27 00:01:46;;;;;;;;;;;13.80;99.90;;;;;;4212970;28;19938;-55
2022/09/27 00:04:06;;;;;;;;;;;13.80;99.90;;;;;;4212826;28;20349;-56
2022/09/27 00:06:28;;;;;;;;;;;13.70;99.90;;;;;;4212855;28;19934;-55
2022/09/27 00:08:48;;;;;;;;;;;13.70;99.90;;;;;;4212698;28;19930;-55
2022/09/27 00:11:16;;;;;;;;;;;13.70;99.90;;;;;;4212842;28;20358;-56
2022/09/27 00:13:36;;;;;;;;;;;13.70;99.90;;;;;;4213359;28;19931;-55
2022/09/27 00:15:57;;;;;;;;;;;13.50;99.90;;;;;;4212984;28;19931;-56
2022/09/27 00:18:17;;;;;;;;;;;13.40;99.90;;;;;;4213002;28;19942;-56
2022/09/27 00:20:38;;;;;;;;;;;13.50;99.90;;;;;;4212993;28;20279;-56
2022/09/27 00:22:58;;;;;;;;;;;13.40;99.90;;;;;;4197493;28;20483;-55
2022/09/27 00:25:18;;;;;;;;;;;13.30;99.90;;;;;;4212805;28;19978;-56
2022/09/27 00:27:39;;;;;;;;;;;13.10;99.90;;;;;;4212916;28;19977;-55
2022/09/27 00:29:59;;;;;;;;;;;13.00;99.90;;;;;;4212657;28;19930;-55
2022/09/27 00:32:19;;;;;;;;;;;13.00;99.90;;;;;;4212314;28;19935;-56
2022/09/27 00:34:40;;;;;;;;;;;12.80;99.90;;;;;;4211915;28;19958;-56
2022/09/27 00:37:00;;;;;;;;;;;12.80;99.90;;;;;;4212008;28;19993;-56
2022/09/27 00:39:21;;;;;;;;;;;12.70;99.90;;;;;;4212422;28;19938;-56
2022/09/27 00:41:41;;;;;;;;;;;12.60;99.90;;;;;;4212203;28;19982;-55
2022/09/27 00:44:21;;;;;;;;;;;12.70;99.90;;;;;;4212311;28;20019;-56
2022/09/27 00:46:46;;;;;;;;;;;12.70;99.90;;;;;;4212579;28;19935;-56
2022/09/27 00:49:26;;;;;;;;;;;12.80;99.90;;;;;;4211812;28;19931;-56
2022/09/27 00:51:48;;;;;;;;;;;12.80;99.90;;;;;;4212283;28;19935;-54
2022/09/27 00:54:11;;;;;;;;;;;12.90;99.90;;;;;;4212353;28;19933;-54
2022/09/27 00:56:31;;;;;;;;;;;13.00;99.90;;;;;;4212128;28;19982;-55
2022/09/27 00:58:58;;;;;;;;;;;12.90;99.90;;;;;;4211528;28;19934;-56
2022/09/27 01:01:18;;;;;;;;;;;12.90;99.90;;;;;;4212154;28;20471;-56
2022/09/27 01:03:57;;;;;;;;;;;13.00;99.90;;;;;;4212395;28;19935;-56
2022/09/27 01:06:18;;;;;;;;;;;13.10;99.90;;;;;;4212236;28;19954;-55
2022/09/27 01:08:39;;;;;;;;;;;13.20;99.90;;;;;;4212285;28;20303;-56
2022/09/27 01:11:23;;;;;;;;;;;13.20;99.90;;;;;;4212297;28;20401;-56
2022/09/27 01:13:54;;;;;;;;;;;13.10;99.90;;;;;;4212075;28;20440;-56
2022/09/27 01:16:20;;;;;;;;;;;13.00;99.90;;;;;;4212078;28;19931;-56
2022/09/27 01:19:01;;;;;;;;;;;12.90;99.90;;;;;;4212355;28;19938;-55
2022/09/27 01:21:40;;;;;;;;;;;12.80;99.90;;;;;;4212186;28;20290;-56
2022/09/27 01:24:18;;;;;;;;;;;13.00;99.90;;;;;;4211969;28;19993;-56
2022/09/27 01:26:50;;;;;;;;;;;13.00;99.90;;;;;;4212111;28;20432;-56
2022/09/27 01:29:26;;;;;;;;;;;13.00;99.90;;;;;;4212329;28;19977;-55
2022/09/27 01:31:48;;;;;;;;;;;12.90;99.90;;;;;;4211879;28;19938;-55
2022/09/27 01:34:15;;;;;;;;;;;12.90;99.90;;;;;;4211668;28;19930;-56
2022/09/27 01:36:41;;;;;;;;;;;12.90;99.90;;;;;;4212389;28;20383;-56
2022/09/27 01:39:11;;;;;;;;;;;12.80;99.90;;;;;;4212285;28;19938;-56
2022/09/27 01:41:31;;;;;;;;;;;12.80;99.90;;;;;;4211442;28;20017;-55
2022/09/27 01:43:51;;;;;;;;;;;12.80;99.90;;;;;;4211988;28;20021;-55
2022/09/27 01:46:14;;;;;;;;;;;12.90;99.90;;;;;;4212332;28;20327;-56
2022/09/27 01:48:37;;;;;;;;;;;13.00;99.90;;;;;;4198015;28;19991;-56
2022/09/27 01:51:07;;;;;;;;;;;13.00;99.90;;;;;;4199001;28;19931;-55
2022/09/27 01:53:32;;;;;;;;;;;13.00;99.90;;;;;;4197860;28;19934;-56
2022/09/27 01:55:54;;;;;;;;;;;13.00;99.90;;;;;;4198499;28;19931;-56
2022/09/27 01:58:18;;;;;;;;;;;12.90;99.90;;;;;;4197949;28;19982;-56
2022/09/27 02:00:39;;;;;;;;;;;12.90;99.90;;;;;;4198125;28;20334;-56
2022/09/27 02:03:06;;;;;;;;;;;12.90;99.90;;;;;;4197644;28;19931;-56
2022/09/27 02:05:31;;;;;;;;;;;12.80;99.90;;;;;;4198206;28;20038;-56
2022/09/27 02:07:55;;;;;;;;;;;12.80;99.90;;;;;;4198327;28;19985;-56
2022/09/27 02:10:21;;;;;;;;;;;12.70;99.90;;;;;;4198113;28;19932;-56
2022/09/27 02:12:48;;;;;;;;;;;12.60;99.90;;;;;;4197789;28;20346;-56
2022/09/27 02:15:11;;;;;;;;;;;12.60;99.90;;;;;;4198116;28;19994;-56
2022/09/27 02:17:46;;;;;;;;;;;12.60;99.90;;;;;;4198112;28;19939;-55
2022/09/27 02:20:06;;;;;;;;;;;12.60;99.90;;;;;;4198019;28;19931;-55
2022/09/27 02:22:45;;;;;;;;;;;12.60;99.90;;;;;;4197853;28;19998;-54
2022/09/27 02:25:11;;;;;;;;;;;12.60;99.90;;;;;;4197670;28;20015;-56
2022/09/27 02:27:36;;;;;;;;;;;12.60;99.90;;;;;;4197496;28;19939;-56
2022/09/27 02:30:00;;;;;;;;;;;12.60;99.90;;;;;;4205934;28;20295;-56
2022/09/27 02:32:20;;;;;;;;;;;12.50;99.90;;;;;;4214714;28;19974;-56
2022/09/27 02:34:42;;;;;;;;;;;12.50;99.90;;;;;;4214499;28;20273;-56
2022/09/27 02:37:03;;;;;;;;;;;12.40;99.90;;;;;;4214419;28;19976;-56
2022/09/27 02:39:23;;;;;;;;;;;12.60;99.90;;;;;;4214496;28;20027;-56
2022/09/27 02:41:43;;;;;;;;;;;13.10;99.90;;;;;;4213872;28;19931;-56
2022/09/27 02:44:06;;;;;;;;;;;13.20;99.90;;;;;;4214139;28;19975;-55
2022/09/27 02:46:32;;;;;;;;;;;13.00;99.90;;;;;;4214370;28;19931;-56
2022/09/27 02:48:52;;;;;;;;;;;12.90;99.90;;;;;;4213959;28;19930;-55
2022/09/27 02:51:24;;;;;;;;;;;12.80;99.90;;;;;;4214155;28;19977;-56
2022/09/27 02:53:48;;;;;;;;;;;12.80;99.90;;;;;;4214279;28;19959;-56
2022/09/27 02:56:09;;;;;;;;;;;12.90;99.90;;;;;;4214316;28;19946;-56
2022/09/27 02:58:39;;;;;;;;;;;13.10;99.90;;;;;;4212269;28;19935;-56
2022/09/27 03:01:14;;;;;;;;;;;13.00;99.90;;;;;;4213973;28;19935;-56
2022/09/27 03:03:39;;;;;;;;;;;12.90;99.90;;;;;;4213799;28;19967;-56
2022/09/27 03:06:10;;;;;;;;;;;12.80;99.90;;;;;;4213539;28;19934;-56
2022/09/27 03:08:31;;;;;;;;;;;12.80;99.90;;;;;;4214034;28;19934;-56
2022/09/27 03:10:51;;;;;;;;;;;12.80;99.90;;;;;;4213950;28;20028;-56
2022/09/27 03:13:12;;;;;;;;;;;12.90;99.90;;;;;;4212195;28;19982;-55
2022/09/27 03:15:32;;;;;;;;;;;13.00;99.90;;;;;;4213647;28;19935;-54
2022/09/27 03:17:53;;;;;;;;;;;13.10;99.90;;;;;;4213759;28;20004;-55
2022/09/27 03:20:13;;;;;;;;;;;13.10;99.90;;;;;;4213798;28;19935;-56
2022/09/27 03:22:34;;;;;;;;;;;13.10;99.90;;;;;;4213752;28;19970;-56
2022/09/27 03:24:55;;;;;;;;;;;13.00;99.90;;;;;;4213180;28;20023;-56
2022/09/27 03:27:15;;;;;;;;;;;12.90;99.90;;;;;;4197072;28;19977;-56
2022/09/27 03:29:36;;;;;;;;;;;12.90;99.90;;;;;;4196689;28;19931;-56
2022/09/27 03:31:56;;;;;;;;;;;12.90;99.90;;;;;;4196579;28;19931;-56
2022/09/27 03:34:16;;;;;;;;;;;12.90;99.90;;;;;;4196436;28;19978;-56
2022/09/27 03:36:37;;;;;;;;;;;13.00;99.90;;;;;;4196792;28;19997;-54
2022/09/27 03:38:57;;;;;;;;;;;12.90;99.90;;;;;;4196673;28;20016;-56
2022/09/27 03:41:17;;;;;;;;;;;13.30;99.90;;;;;;4196378;28;20457;-55
2022/09/27 03:43:37;;;;;;;;;;;13.50;99.90;;;;;;4196388;28;19950;-56
2022/09/27 03:45:58;;;;;;;;;;;13.60;99.90;;;;;;4196652;28;20383;-56
2022/09/27 03:48:19;;;;;;;;;;;13.70;99.90;;;;;;4196203;28;20011;-55
2022/09/27 03:50:43;;;;;;;;;;;13.60;99.90;;;;;;4196298;28;20312;-56
2022/09/27 03:53:03;;;;;;;;;;;13.50;99.90;;;;;;4196445;28;19974;-55
2022/09/27 03:55:24;;;;;;;;;;;13.50;99.90;;;;;;4196596;28;20015;-56
2022/09/27 03:57:45;;;;;;;;;;;13.70;99.90;;;;;;4196336;28;20449;-55
2022/09/27 04:00:05;;;;;;;;;;;13.90;99.90;;;;;;4196181;28;19936;-56
2022/09/27 04:02:26;;;;;;;;;;;13.80;99.90;;;;;;4196142;28;19967;-56
2022/09/27 04:04:47;;;;;;;;;;;13.60;99.90;;;;;;4196173;28;19931;-56
2022/09/27 04:07:08;;;;;;;;;;;13.50;99.90;;;;;;4196099;28;19931;-56
2022/09/27 04:09:29;;;;;;;;;;;13.50;99.90;;;;;;4200344;28;19974;-55
2022/09/27 04:11:49;;;;;;;;;;;13.60;99.90;;;;;;4204273;28;19930;-56
2022/09/27 04:14:11;;;;;;;;;;;13.60;99.90;;;;;;4213071;28;19997;-56
2022/09/27 04:16:32;;;;;;;;;;;13.60;99.90;;;;;;4212805;28;19935;-56
2022/09/27 04:18:52;;;;;;;;;;;13.50;99.90;;;;;;4209861;28;19993;-55
2022/09/27 04:21:13;;;;;;;;;;;13.50;99.90;;;;;;4196228;28;19939;-55
2022/09/27 04:23:35;;;;;;;;;;;13.40;99.90;;;;;;4195679;28;19936;-56
2022/09/27 04:25:55;;;;;;;;;;;13.40;99.90;;;;;;4180445;28;20461;-56
2022/09/27 04:28:15;;;;;;;;;;;13.60;99.90;;;;;;4196072;28;20028;-56
2022/09/27 04:30:36;;;;;;;;;;;13.60;99.90;;;;;;4195543;28;19978;-56
2022/09/27 04:32:56;;;;;;;;;;;13.50;99.90;;;;;;4205713;28;20306;-56
2022/09/27 04:37:56;;;;;;;;;;;13.40;99.90;;;;;;4212560;28;19931;-56
2022/09/27 04:40:16;;;;;;;;;;;13.40;99.90;;;;;;4212350;28;20046;-56
2022/09/27 04:42:37;;;;;;;;;;;13.40;99.90;;;;;;4202122;28;20376;-56
2022/09/27 04:44:57;;;;;;;;;;;13.40;99.90;;;;;;4195325;28;19931;-56
2022/09/27 04:47:19;;;;;;;;;;;13.40;99.90;;;;;;4206135;28;19967;-56
2022/09/27 04:49:40;;;;;;;;;;;13.40;99.90;;;;;;4195413;28;19955;-56
2022/09/27 04:52:01;;;;;;;;;;;13.40;99.90;;;;;;4195707;28;19935;-56
2022/09/27 04:54:21;;;;;;;;;;;13.40;99.90;;;;;;4195901;28;19939;-56
2022/09/27 04:56:42;;;;;;;;;;;13.40;99.90;;;;;;4195556;28;19931;-55
2022/09/27 04:59:02;;;;;;;;;;;13.40;99.90;;;;;;4195701;28;19931;-55
2022/09/27 05:01:27;;;;;;;;;;;13.40;99.90;;;;;;4195601;28;19970;-55
2022/09/27 05:03:48;;;;;;;;;;;13.60;99.90;;;;;;4195566;28;19947;-55
2022/09/27 05:06:08;;;;;;;;;;;13.90;99.90;;;;;;4198058;28;20348;-55
2022/09/27 05:08:28;;;;;;;;;;;14.00;99.90;;;;;;4195642;28;19990;-55
2022/09/27 05:10:49;;;;;;;;;;;13.90;99.90;;;;;;4195379;28;19944;-56
2022/09/27 05:13:10;;;;;;;;;;;13.90;99.90;;;;;;4195449;28;19974;-55
2022/09/27 05:15:30;;;;;;;;;;;14.10;99.90;;;;;;4195229;28;20426;-56
2022/09/27 05:17:51;;;;;;;;;;;14.30;99.90;;;;;;4195730;28;19975;-55
2022/09/27 05:20:12;;;;;;;;;;;14.30;99.90;;;;;;4207832;28;20284;-56
2022/09/27 05:22:33;;;;;;;;;;;14.10;99.90;;;;;;4215377;28;20353;-56
2022/09/27 05:24:53;;;;;;;;;;;13.90;99.90;;;;;;4215002;28;20498;-56
2022/09/27 05:27:17;;;;;;;;;;;13.90;99.90;;;;;;4215526;28;20048;-56
2022/09/27 05:29:37;;;;;;;;;;;13.80;99.90;;;;;;4213642;28;19931;-54
2022/09/27 05:31:57;;;;;;;;;;;13.70;99.90;;;;;;4215265;28;20394;-56
2022/09/27 05:34:19;;;;;;;;;;;13.60;99.90;;;;;;4212038;28;19930;-55
2022/09/27 05:36:39;;;;;;;;;;;13.70;99.90;;;;;;4214128;28;20056;-56
2022/09/27 05:39:00;;;;;;;;;;;13.80;99.90;;;;;;4214459;28;19935;-56
2022/09/27 05:41:20;;;;;;;;;;;13.90;99.90;;;;;;4198111;28;19935;-56
2022/09/27 05:43:40;;;;;;;;;;;14.00;99.90;;;;;;4198272;28;20020;-55
2022/09/27 05:46:01;;;;;;;;;;;14.00;99.90;;;;;;4198381;28;19932;-56
2022/09/27 05:48:21;;;;;;;;;;;14.00;99.90;;;;;;4197973;28;19982;-56
2022/09/27 05:50:42;;;;;;;;;;;14.10;99.90;;;;;;4197443;28;19954;-56
2022/09/27 05:53:02;;;;;;;;;;;14.20;99.90;;;;;;4198375;28;19936;-56
2022/09/27 05:55:23;;;;;;;;;;;14.20;99.90;;;;;;4198617;28;20405;-55
2022/09/27 05:57:52;;;;;;;;;;;14.20;99.90;;;;;;4198108;28;19955;-56
2022/09/27 06:00:16;;;;;;;;;;;14.50;99.90;;;;;;4197858;28;20016;-56
2022/09/27 06:02:37;;;;;;;;;;;14.60;99.90;;;;;;4198119;28;19970;-56
2022/09/27 06:04:57;;;;;;;;;;;14.60;99.90;;;;;;4197943;28;19932;-55
2022/09/27 06:07:19;;;;;;;;;;;14.70;99.90;;;;;;4197932;28;19978;-56
2022/09/27 06:09:40;;;;;;;;;;;14.70;99.90;;;;;;4197669;28;19974;-55
2022/09/27 06:12:00;;;;;;;;;;;14.70;99.90;;;;;;4197772;28;20007;-56
2022/09/27 06:14:21;;;;;;;;;;;14.60;99.90;;;;;;4200892;28;19931;-56
2022/09/27 06:16:41;;;;;;;;;;;14.60;99.90;;;;;;4214467;28;20452;-56
2022/09/27 06:19:03;;;;;;;;;;;14.50;99.90;;;;;;4214514;28;19932;-56
2022/09/27 06:21:23;;;;;;;;;;;14.40;99.90;;;;;;4214416;28;20408;-56
2022/09/27 06:23:43;;;;;;;;;;;14.50;99.90;;;;;;4214937;28;19931;-56
2022/09/27 06:26:05;;;;;;;;;;;14.70;99.90;;;;;;4214216;28;19982;-56
2022/09/27 06:28:26;;;;;;;;;;;14.70;99.90;;;;;;4214752;28;19930;-56
2022/09/27 06:30:47;;;;;;;;;;;14.70;99.90;;;;;;4214552;28;19978;-55
2022/09/27 06:33:09;;;;;;;;;;;14.80;99.90;;;;;;4213512;28;19957;-56
2022/09/27 06:35:30;;;;;;;;;;;14.90;99.90;;;;;;4214251;28;19935;-56
2022/09/27 06:37:50;;;;;;;;;;;15.00;99.90;;;;;;4214528;28;19939;-56
2022/09/27 06:40:11;;;;;;;;;;;14.80;99.90;;;;;;4214154;28;20011;-55
2022/09/27 06:42:32;;;;;;;;;;;14.70;99.90;;;;;;4214855;28;19932;-56
2022/09/27 06:44:53;;;;;;;;;;;14.50;99.90;;;;;;4214253;28;20024;-56
2022/09/27 06:47:13;;;;;;;;;;;14.50;99.90;;;;;;4214050;28;19978;-56
2022/09/27 06:49:35;;;;;;;;;;;14.50;99.90;;;;;;4213417;28;19931;-54
2022/09/27 06:51:56;;;;;;;;;;;14.60;99.90;;;;;;4213900;28;20298;-56
2022/09/27 06:54:16;;;;;;;;;;;14.60;99.90;;;;;;4213840;28;19985;-56
2022/09/27 06:56:36;;;;;;;;;;;14.60;99.90;;;;;;4214017;28;19931;-55
2022/09/27 07:01:35;;;;;;;;;;;14.50;99.90;;;;;;4213488;28;19930;-58
2022/09/27 07:03:57;;;;;;;;;;;14.40;99.90;;;;;;4213535;28;20428;-59
2022/09/27 07:06:21;;;;;;;;;;;14.40;99.90;;;;;;4213672;28;20032;-59
2022/09/27 07:08:41;;;;;;;;;;;14.30;99.90;;;;;;4213382;28;20389;-58
2022/09/27 07:11:03;;;;;;;;;;;14.30;99.90;;;;;;4213237;28;19973;-59
2022/09/27 07:13:25;;;;;;;;;;;14.30;99.90;;;;;;4213349;28;20363;-59
2022/09/27 07:15:45;;;;;;;;;;;14.30;99.90;;;;;;4214159;28;19970;-59
2022/09/27 07:18:06;;;;;;;;;;;14.30;99.90;;;;;;4213468;28;19931;-57
2022/09/27 07:20:28;;;;;;;;;;;14.50;99.90;;;;;;4213141;28;19931;-58
2022/09/27 07:22:48;;;;;;;;;;;14.40;99.90;;;;;;4213014;28;19935;-59
2022/09/27 07:25:09;;;;;;;;;;;14.30;99.90;;;;;;4212962;28;19974;-59
2022/09/27 07:27:31;;;;;;;;;;;14.30;99.90;;;;;;4197931;28;19930;-58
2022/09/27 07:29:52;;;;;;;;;;;14.30;99.90;;;;;;4213326;28;19935;-58
2022/09/27 07:32:13;;;;;;;;;;;14.30;99.90;;;;;;4212912;28;19938;-58
2022/09/27 07:34:33;;;;;;;;;;;14.30;99.90;;;;;;4212796;28;19942;-59
2022/09/27 07:37:02;;;;;;;;;;;14.30;99.90;;;;;;4213113;28;20009;-58
2022/09/27 07:39:23;;;;;;;;;;;14.30;99.90;;;;;;4212867;28;20453;-58
2022/09/27 07:41:43;;;;;;;;;;;14.30;99.90;;;;;;4212825;28;19978;-59
2022/09/27 07:44:06;;;;;;;;;;;14.30;99.90;;;;;;4212985;28;19935;-59
2022/09/27 07:46:28;;;;;;;;;;;14.30;99.90;;;;;;4213038;28;19930;-59
2022/09/27 07:48:50;;;;;;;;;;;14.30;99.90;;;;;;4212581;28;19935;-59
2022/09/27 07:51:11;;;;;;;;;;;14.40;99.90;;;;;;4212864;28;20286;-59
2022/09/27 07:53:31;;;;;;;;;;;14.70;99.90;;;;;;4213075;28;19931;-59
2022/09/27 07:55:52;;;;;;;;;;;15.00;99.90;;;;;;4213118;28;20023;-59
2022/09/27 07:58:12;;;;;;;;;;;15.30;99.90;;;;;;4212782;28;19970;-58
2022/09/27 08:00:33;;;;;;;;;;;15.40;99.90;;;;;;4212658;28;19934;-59
2022/09/27 08:02:54;;;;;;;;;;;15.30;99.90;;;;;;4212461;28;20016;-58
2022/09/27 08:05:14;;;;;;;;;;;15.10;99.90;;;;;;4212409;28;20024;-58
2022/09/27 08:07:35;;;;;;;;;;;14.90;99.90;;;;;;4212693;28;19962;-59
2022/09/27 08:09:56;;;;;;;;;;;14.90;99.90;;;;;;4212200;28;20464;-58
2022/09/27 08:12:16;;;;;;;;;;;15.00;99.90;;;;;;4212851;28;20015;-58
2022/09/27 08:14:37;;;;;;;;;;;14.90;99.90;;;;;;4212773;28;19931;-59
2022/09/27 08:17:03;;;;;;;;;;;15.00;99.90;;;;;;4212313;28;20437;-58
2022/09/27 08:19:25;;;;;;;;;;;15.20;99.90;;;;;;4212329;28;19935;-59
2022/09/27 08:21:46;;;;;;;;;;;15.20;99.90;;;;;;4212002;28;20516;-57
2022/09/27 08:24:07;;;;;;;;;;;15.10;99.90;;;;;;4212511;28;20419;-58
2022/09/27 08:26:27;;;;;;;;;;;15.00;99.90;;;;;;4211953;28;19931;-59
2022/09/27 08:28:47;;;;;;;;;;;15.00;99.90;;;;;;4212652;28;19958;-59
2022/09/27 08:31:08;;;;;;;;;;;14.90;99.90;;;;;;4212106;28;19935;-59
2022/09/27 08:33:28;;;;;;;;;;;14.90;99.90;;;;;;4212271;28;19930;-58
2022/09/27 08:35:52;;;;;;;;;;;15.00;99.90;;;;;;4212322;28;19958;-59
2022/09/27 08:38:12;;;;;;;;;;;15.00;99.90;;;;;;4212243;28;19959;-59
2022/09/27 08:40:42;;;;;;;;;;;15.30;99.90;;;;;;4211992;28;19930;-59
2022/09/27 08:43:14;;;;;;;;;;;15.60;99.90;;;;;;4212222;28;19938;-58
2022/09/27 08:45:38;;;;;;;;;;;15.60;99.90;;;;;;4211827;28;19997;-59
2022/09/27 08:48:00;;;;;;;;;;;15.40;99.90;;;;;;4211795;28;19931;-58
2022/09/27 08:50:20;;;;;;;;;;;15.20;99.90;;;;;;4212004;28;19931;-59
2022/09/27 08:52:43;;;;;;;;;;;15.10;99.90;;;;;;4211681;28;19938;-58
2022/09/27 08:55:05;;;;;;;;;;;15.10;99.90;;;;;;4212163;28;19985;-58
2022/09/27 08:57:25;;;;;;;;;;;15.10;99.90;;;;;;4212110;28;19947;-58
2022/09/27 08:59:53;;;;;;;;;;;15.10;99.90;;;;;;4211867;28;19935;-59
2022/09/27 09:02:18;;;;;;;;;;;15.20;99.90;;;;;;4211930;28;19935;-58
2022/09/27 09:04:40;;;;;;;;;;;15.20;99.90;;;;;;4211308;28;19931;-57
2022/09/27 09:07:00;;;;;;;;;;;15.00;99.90;;;;;;4212102;28;19931;-58
2022/09/27 09:09:47;;;;;;;;;;;14.80;99.90;;;;;;4212237;28;20275;-58
2022/09/27 09:14:58;;;;;;;;;;;14.70;99.90;;;;;;4211660;28;20028;-58
2022/09/27 09:17:25;;;;;;;;;;;14.60;99.90;;;;;;4212198;28;20011;-59
2022/09/27 09:19:48;;;;;;;;;;;14.70;99.90;;;;;;4211706;28;19982;-58
2022/09/27 09:22:27;;;;;;;;;;;14.60;99.90;;;;;;4209453;28;20342;-58
2022/09/27 09:25:06;;;;;;;;;;;14.60;99.90;;;;;;4209128;28;19931;-59
2022/09/27 09:27:32;;;;;;;;;;;14.40;99.90;;;;;;4211326;28;19934;-59
2022/09/27 09:30:24;;;;;;;;;;;14.30;99.90;;;;;;4211619;28;20005;-59
2022/09/27 09:33:04;;;;;;;;;;;14.30;99.90;;;;;;4144009;28;19932;-59
2022/09/27 09:35:32;;;;;;;;;;;14.20;99.90;;;;;;4207259;28;19955;-59
2022/09/27 09:37:56;;;;;;;;;;;14.20;99.90;;;;;;4207283;28;19942;-59
2022/09/27 09:40:19;;;;;;;;;;;14.40;99.90;;;;;;4210548;28;19934;-59
2022/09/27 09:42:44;;;;;;;;;;;14.30;99.90;;;;;;4210308;28;20321;-59
2022/09/27 09:45:09;;;;;;;;;;;14.40;99.90;;;;;;4204339;28;19970;-59
2022/09/27 09:47:38;;;;;;;;;;;14.80;99.90;;;;;;4205937;28;19934;-59
2022/09/27 09:50:00;;;;;;;;;;;14.90;99.90;;;;;;4207727;28;19954;-59
2022/09/27 09:52:23;;;;;;;;;;;14.70;99.90;;;;;;4208908;28;19935;-58
2022/09/27 09:54:43;;;;;;;;;;;14.40;99.90;;;;;;4211247;28;20287;-59
2022/09/27 09:57:26;;;;;;;;;;;14.30;99.90;;;;;;4210300;28;19931;-60
2022/09/27 09:59:53;;;;;;;;;;;14.10;99.90;;;;;;4208052;28;19935;-59
2022/09/27 10:02:18;;;;;;;;;;;14.20;99.90;;;;;;4203012;28;19946;-59
2022/09/27 10:04:38;;;;;;;;;;;14.40;99.90;;;;;;4208273;28;19997;-59
2022/09/27 10:07:00;;;;;;;;;;;14.50;99.90;;;;;;4208131;28;19935;-59
2022/09/27 10:09:23;;;;;;;;;;;14.60;99.90;;;;;;4211133;28;19931;-59
2022/09/27 10:11:44;;;;;;;;;;;14.60;99.90;;;;;;4209378;28;20389;-59
2022/09/27 10:14:09;;;;;;;;;;;14.70;99.90;;;;;;4214653;28;20024;-59
2022/09/27 10:16:29;;;;;;;;;;;15.00;99.90;;;;;;4214329;28;19931;-59
2022/09/27 10:18:51;;;;;;;;;;;15.30;99.90;;;;;;4205602;28;20023;-59
2022/09/27 10:21:24;;;;;;;;;;;15.40;99.90;;;;;;4205011;28;19931;-59
2022/09/27 10:24:03;;;;;;;;;;;15.60;99.90;;;;;;4212470;28;19931;-58
2022/09/27 10:26:24;;;;;;;;;;;16.30;99.90;;;;;;4202513;28;19938;-58
2022/09/27 10:28:46;;;;;;;;;;;16.20;99.90;;;;;;4212399;28;19971;-59
2022/09/27 10:31:17;;;;;;;;;;;16.70;99.90;;;;;;4206773;28;19978;-59
2022/09/27 10:33:58;;;;;;;;;;;17.00;99.90;;;;;;4206620;28;19934;-59
2022/09/27 10:36:27;;;;;;;;;;;17.50;99.90;;;;;;4208286;28;19930;-57
2022/09/27 10:38:59;;;;;;;;;;;17.80;99.90;;;;;;4204112;28;19951;-57
2022/09/27 10:41:38;;;;;;;;;;;18.00;99.90;;;;;;4205297;28;19931;-56
2022/09/27 10:44:14;;;;;;;;;;;18.00;99.90;;;;;;4205050;28;21374;-55
2022/09/27 10:46:34;;;;;;;;;;;17.90;99.90;;;;;;4197448;28;20390;-56
2022/09/27 10:49:13;;;;;;;;;;;17.60;99.90;;;;;;4210663;28;19974;-57
2022/09/27 10:51:34;;;;;;;;;;;17.70;99.90;;;;;;4211402;28;19931;-56
2022/09/27 10:53:59;;;;;;;;;;;17.50;99.90;;;;;;4214329;28;20015;-56
2022/09/27 10:56:25;;;;;;;;;;;17.30;99.90;;;;;;4207687;28;19974;-56
2022/09/27 10:58:45;;;;;;;;;;;17.30;99.90;;;;;;4201432;28;19952;-57
2022/09/27 11:01:07;;;;;;;;;;;17.40;99.90;;;;;;4202109;28;19939;-57
2022/09/27 11:03:29;;;;;;;;;;;17.50;99.90;;;;;;4209740;28;19934;-57
2022/09/27 11:05:50;;;;;;;;;;;17.50;99.90;;;;;;4204808;28;19974;-55
2022/09/27 11:08:17;;;;;;;;;;;17.10;99.90;;;;;;4206361;28;19994;-57
2022/09/27 11:10:38;;;;;;;;;;;16.90;99.90;;;;;;4207763;28;19931;-59
2022/09/27 11:13:17;;;;;;;;;;;16.50;99.90;;;;;;4210392;28;19977;-58
2022/09/27 11:15:44;;;;;;;;;;;16.10;99.90;;;;;;4214073;28;20468;-58
2022/09/27 11:18:27;;;;;;;;;;;15.90;99.90;;;;;;4214144;28;19931;-57
2022/09/27 11:20:52;;;;;;;;;;;16.00;99.90;;;;;;4214023;28;20071;-57
2022/09/27 11:23:12;;;;;;;;;;;16.30;99.90;;;;;;4213856;28;19931;-56
2022/09/27 11:25:33;;;;;;;;;;;16.60;99.90;;;;;;4206000;28;19935;-57
2022/09/27 11:27:59;;;;;;;;;;;16.90;99.90;;;;;;4205633;28;19930;-56
2022/09/27 11:30:20;;;;;;;;;;;17.10;99.90;;;;;;4207157;28;20409;-57
2022/09/27 11:32:54;;;;;;;;;;;17.40;99.90;;;;;;4213260;28;20019;-56
2022/09/27 11:35:20;;;;;;;;;;;17.40;99.90;;;;;;4208757;28;19942;-57
2022/09/27 11:37:41;;;;;;;;;;;17.60;99.90;;;;;;4212515;28;20012;-56
2022/09/27 11:40:07;;;;;;;;;;;17.50;99.90;;;;;;4207875;28;19965;-56
2022/09/27 11:42:39;;;;;;;;;;;17.50;99.90;;;;;;4196625;28;19932;-57
2022/09/27 11:45:00;;;;;;;;;;;17.30;99.90;;;;;;4196645;28;19984;-57
2022/09/27 11:48:10;;;;;;;;;;;17.10;99.90;;;;;;4211892;28;19997;-58
2022/09/27 11:50:37;;;;;;;;;;;16.80;99.90;;;;;;4140971;28;19937;-57
2022/09/27 11:53:16;;;;;;;;;;;16.60;99.90;;;;;;4211313;28;19931;-57
2022/09/27 11:55:49;;;;;;;;;;;16.50;99.90;;;;;;4213215;28;19934;-57
2022/09/27 11:58:22;;;;;;;;;;;16.40;99.90;;;;;;4213183;28;19931;-57
2022/09/27 12:00:42;;;;;;;;;;;16.40;99.90;;;;;;4212604;28;20031;-56
2022/09/27 12:03:21;;;;;;;;;;;16.30;99.90;;;;;;4213447;28;20004;-57
2022/09/27 12:05:59;;;;;;;;;;;16.40;99.90;;;;;;4212987;28;19935;-57
2022/09/27 12:08:35;;;;;;;;;;;16.50;99.90;;;;;;4212739;28;20022;-57
2022/09/27 12:11:17;;;;;;;;;;;16.30;99.90;;;;;;4213192;28;19934;-57
2022/09/27 12:13:48;;;;;;;;;;;16.40;99.90;;;;;;4213269;28;20013;-57
2022/09/27 12:16:09;;;;;;;;;;;16.30;99.90;;;;;;4213171;28;20303;-57
2022/09/27 12:18:31;;;;;;;;;;;16.20;99.90;;;;;;4212907;28;19935;-59
2022/09/27 12:20:52;;;;;;;;;;;16.20;99.90;;;;;;4206181;28;19935;-58
2022/09/27 12:23:16;;;;;;;;;;;16.10;99.90;;;;;;4199156;28;20370;-58
2022/09/27 12:25:39;;;;;;;;;;;16.00;99.90;;;;;;4206873;28;20310;-58
2022/09/27 12:28:02;;;;;;;;;;;15.90;99.90;;;;;;4204535;28;19930;-58
2022/09/27 12:30:23;;;;;;;;;;;15.80;99.90;;;;;;4212251;28;19974;-58
2022/09/27 12:32:52;;;;;;;;;;;16.00;99.90;;;;;;4212351;28;19977;-57
2022/09/27 12:35:21;;;;;;;;;;;16.30;99.90;;;;;;4204463;28;20396;-58
2022/09/27 12:37:50;;;;;;;;;;;16.40;99.90;;;;;;4212950;28;19931;-57
2022/09/27 12:40:17;;;;;;;;;;;16.50;99.90;;;;;;4211664;28;19935;-57
2022/09/27 12:42:40;;;;;;;;;;;16.70;99.90;;;;;;4205335;28;19930;-57
2022/09/27 12:45:09;;;;;;;;;;;16.90;99.90;;;;;;4201705;28;20288;-57
2022/09/27 12:47:39;;;;;;;;;;;17.00;99.90;;;;;;4195670;28;19931;-57
2022/09/27 12:50:16;;;;;;;;;;;17.00;99.90;;;;;;4201399;28;20374;-57
2022/09/27 12:52:40;;;;;;;;;;;17.00;99.90;;;;;;4202322;28;19935;-56
2022/09/27 12:55:20;;;;;;;;;;;17.00;99.90;;;;;;4208991;28;19982;-57
2022/09/27 12:57:50;;;;;;;;;;;16.90;99.90;;;;;;4198461;28;20023;-57
2022/09/27 13:00:17;;;;;;;;;;;17.00;99.90;;;;;;4197855;28;19935;-56
2022/09/27 13:02:56;;;;;;;;;;;17.10;99.90;;;;;;4195143;28;19946;-56
2022/09/27 13:05:54;;;;;;;;;;;17.70;99.90;;;;;;4207136;28;19931;-57
2022/09/27 13:08:30;;;;;;;;;;;18.40;99.90;;;;;;4205077;28;20457;-57
2022/09/27 13:10:53;;;;;;;;;;;18.60;99.90;;;;;;4208572;28;19935;-57
2022/09/27 13:13:19;;;;;;;;;;;18.80;99.90;;;;;;4212140;28;20412;-56
2022/09/27 13:15:42;;;;;;;;;;;19.10;99.90;;;;;;4206185;28;19947;-56
2022/09/27 13:18:05;;;;;;;;;;;19.40;99.90;;;;;;4207553;28;20271;-56
2022/09/27 13:20:34;;;;;;;;;;;19.50;99.90;;;;;;4211517;28;19931;-55
2022/09/27 13:22:56;;;;;;;;;;;19.70;99.90;;;;;;4212238;28;19935;-56
2022/09/27 13:25:35;;;;;;;;;;;19.70;99.90;;;;;;4212129;28;20411;-57
2022/09/27 13:27:55;;;;;;;;;;;19.90;99.90;;;;;;4212420;28;19934;-56
2022/09/27 13:30:18;;;;;;;;;;;20.10;99.90;;;;;;4212291;28;19931;-57
2022/09/27 13:32:39;;;;;;;;;;;20.00;99.90;;;;;;4212144;28;19973;-56
2022/09/27 13:35:20;;;;;;;;;;;19.90;99.90;;;;;;4212263;28;20409;-56
2022/09/27 13:37:43;;;;;;;;;;;19.80;99.90;;;;;;4211261;28;20417;-56
2022/09/27 13:40:09;;;;;;;;;;;19.50;99.90;;;;;;4211885;28;19994;-56
2022/09/27 13:42:34;;;;;;;;;;;19.60;99.90;;;;;;4197240;28;19990;-56
2022/09/27 13:45:04;;;;;;;;;;;19.60;99.90;;;;;;4206682;28;20421;-57
2022/09/27 13:47:31;;;;;;;;;;;19.20;99.90;;;;;;4215255;28;19989;-56
2022/09/27 13:49:54;;;;;;;;;;;19.00;99.90;;;;;;4198376;28;20050;-56
2022/09/27 13:52:20;;;;;;;;;;;19.10;99.90;;;;;;4198686;28;20394;-56
2022/09/27 13:54:52;;;;;;;;;;;19.50;99.90;;;;;;4198423;28;20413;-56
2022/09/27 13:57:32;;;;;;;;;;;20.00;99.90;;;;;;4198854;28;19978;-57
2022/09/27 13:59:53;;;;;;;;;;;19.30;99.90;;;;;;4198477;28;19959;-56
2022/09/27 14:02:24;;;;;;;;;;;19.60;99.90;;;;;;4197965;28;19950;-57
2022/09/27 14:04:49;;;;;;;;;;;19.50;99.90;;;;;;4198377;28;20418;-57
2022/09/27 14:07:13;;;;;;;;;;;19.10;99.90;;;;;;4198210;28;20422;-56
2022/09/27 14:09:38;;;;;;;;;;;19.20;99.90;;;;;;4197919;28;19932;-57